sensor_id;sensor_type;location;lat;lon;timestamp;pressure;altitude;pressure_sealevel;temperature;humidity
37904;BME280;23738;50.422;18.758;2023-04-24T00:01:09;97619.08;;;10.43;61.75
37904;BME280;23738;50.422;18.758;2023-04-24T00:03:36;97616.09;;;10.47;61.84
37904;BME280;23738;50.422;18.758;2023-04-24T00:06:05;97610.98;;;10.51;62.18
37904;BME280;23738;50.422;18.758;2023-04-24T00:08:35;97611.35;;;10.57;62.11
37904;BME280;23738;50.422;18.758;2023-04-24T00:11:02;97609.98;;;10.60;62.36
37904;BME280;23738;50.422;18.758;2023-04-24T00:13:30;97609.41;;;10.60;62.24
37904;BME280;23738;50.422;18.758;2023-04-24T00:15:57;97608.20;;;10.59;62.31
37904;BME280;23738;50.422;18.758;2023-04-24T00:18:24;97608.65;;;10.58;62.46
37904;BME280;23738;50.422;18.758;2023-04-24T00:20:51;97602.96;;;10.59;62.27
37904;BME280;23738;50.422;18.758;2023-04-24T00:23:18;97599.58;;;10.60;62.35
37904;BME280;23738;50.422;18.758;2023-04-24T00:25:46;97596.89;;;10.63;62.55
37904;BME280;23738;50.422;18.758;2023-04-24T00:28:13;97595.10;;;10.67;62.78
37904;BME280;23738;50.422;18.758;2023-04-24T00:30:41;97590.60;;;10.70;63.10
37904;BME280;23738;50.422;18.758;2023-04-24T00:33:08;97587.84;;;10.72;63.28
37904;BME280;23738;50.422;18.758;2023-04-24T00:35:36;97587.13;;;10.74;63.23
37904;BME280;23738;50.422;18.758;2023-04-24T00:38:03;97588.21;;;10.76;63.44
37904;BME280;23738;50.422;18.758;2023-04-24T00:40:30;97583.66;;;10.75;63.57
37904;BME280;23738;50.422;18.758;2023-04-24T00:42:58;97577.91;;;10.73;63.58
37904;BME280;23738;50.422;18.758;2023-04-24T00:45:25;97576.82;;;10.72;63.34
37904;BME280;23738;50.422;18.758;2023-04-24T00:47:53;97576.38;;;10.72;63.54
37904;BME280;23738;50.422;18.758;2023-04-24T00:50:21;97574.02;;;10.74;63.44
37904;BME280;23738;50.422;18.758;2023-04-24T00:52:48;97572.27;;;10.79;63.72
37904;BME280;23738;50.422;18.758;2023-04-24T00:55:16;97568.67;;;10.80;63.62
37904;BME280;23738;50.422;18.758;2023-04-24T00:57:43;97567.67;;;10.79;63.85
37904;BME280;23738;50.422;18.758;2023-04-24T01:03:00;97560.63;;;10.80;63.98
37904;BME280;23738;50.422;18.758;2023-04-24T01:06:28;97566.48;;;10.78;63.60
37904;BME280;23738;50.422;18.758;2023-04-24T01:09:54;97558.67;;;10.74;63.81
37904;BME280;23738;50.422;18.758;2023-04-24T01:13:21;97555.67;;;10.71;63.50
37904;BME280;23738;50.422;18.758;2023-04-24T01:16:49;97554.67;;;10.73;63.45
37904;BME280;23738;50.422;18.758;2023-04-24T01:20:16;97552.70;;;10.75;63.62
37904;BME280;23738;50.422;18.758;2023-04-24T01:30:15;97541.98;;;10.76;63.50
37904;BME280;23738;50.422;18.758;2023-04-24T01:32:42;97542.45;;;10.71;63.65
37904;BME280;23738;50.422;18.758;2023-04-24T01:35:11;97539.11;;;10.69;63.53
37904;BME280;23738;50.422;18.758;2023-04-24T01:37:38;97536.29;;;10.62;63.43
37904;BME280;23738;50.422;18.758;2023-04-24T01:40:26;97533.94;;;10.59;63.46
37904;BME280;23738;50.422;18.758;2023-04-24T01:43:14;97537.28;;;10.52;63.30
37904;BME280;23738;50.422;18.758;2023-04-24T01:46:22;97532.60;;;10.45;63.23
37904;BME280;23738;50.422;18.758;2023-04-24T01:49:49;97530.52;;;10.40;63.00
37904;BME280;23738;50.422;18.758;2023-04-24T01:52:55;97526.85;;;10.38;63.08
37904;BME280;23738;50.422;18.758;2023-04-24T01:55:43;97529.61;;;10.38;63.12
37904;BME280;23738;50.422;18.758;2023-04-24T01:59:06;97526.91;;;10.40;63.27
37904;BME280;23738;50.422;18.758;2023-04-24T02:02:01;97524.89;;;10.37;63.20
37904;BME280;23738;50.422;18.758;2023-04-24T02:04:28;97520.30;;;10.38;63.29
37904;BME280;23738;50.422;18.758;2023-04-24T02:07:39;97515.30;;;10.39;63.36
37904;BME280;23738;50.422;18.758;2023-04-24T02:10:41;97522.21;;;10.36;63.26
37904;BME280;23738;50.422;18.758;2023-04-24T02:13:29;97514.90;;;10.33;63.29
37904;BME280;23738;50.422;18.758;2023-04-24T02:16:31;97519.17;;;10.35;63.37
37904;BME280;23738;50.422;18.758;2023-04-24T02:19:58;97517.70;;;10.37;63.55
37904;BME280;23738;50.422;18.758;2023-04-24T02:23:05;97513.16;;;10.36;63.45
37904;BME280;23738;50.422;18.758;2023-04-24T02:25:33;97513.56;;;10.38;63.39
37904;BME280;23738;50.422;18.758;2023-04-24T02:28:01;97507.35;;;10.45;63.68
37904;BME280;23738;50.422;18.758;2023-04-24T02:30:29;97507.75;;;10.51;63.68
37904;BME280;23738;50.422;18.758;2023-04-24T02:32:57;97511.78;;;10.56;63.77
37904;BME280;23738;50.422;18.758;2023-04-24T02:35:24;97502.85;;;10.59;63.90
37904;BME280;23738;50.422;18.758;2023-04-24T02:37:52;97499.38;;;10.60;63.77
37904;BME280;23738;50.422;18.758;2023-04-24T02:40:19;97496.88;;;10.62;63.73
37904;BME280;23738;50.422;18.758;2023-04-24T02:42:47;97498.00;;;10.66;63.71
37904;BME280;23738;50.422;18.758;2023-04-24T02:45:14;97497.54;;;10.68;63.83
37904;BME280;23738;50.422;18.758;2023-04-24T02:47:42;97497.63;;;10.68;63.73
37904;BME280;23738;50.422;18.758;2023-04-24T02:50:10;97499.80;;;10.68;63.69
37904;BME280;23738;50.422;18.758;2023-04-24T02:52:37;97497.21;;;10.68;63.70
37904;BME280;23738;50.422;18.758;2023-04-24T02:55:06;97497.30;;;10.67;63.56
37904;BME280;23738;50.422;18.758;2023-04-24T02:57:38;97492.38;;;10.70;63.69
37904;BME280;23738;50.422;18.758;2023-04-24T03:00:27;97493.28;;;10.76;63.87
37904;BME280;23738;50.422;18.758;2023-04-24T03:02:54;97491.16;;;10.78;63.68
37904;BME280;23738;50.422;18.758;2023-04-24T03:05:30;97488.31;;;10.84;63.58
37904;BME280;23738;50.422;18.758;2023-04-24T03:07:58;97491.88;;;10.87;63.36
37904;BME280;23738;50.422;18.758;2023-04-24T03:10:45;97497.56;;;10.92;63.32
37904;BME280;23738;50.422;18.758;2023-04-24T03:13:15;97496.05;;;10.94;63.24
37904;BME280;23738;50.422;18.758;2023-04-24T03:16:02;97494.73;;;10.94;63.37
37904;BME280;23738;50.422;18.758;2023-04-24T03:18:58;97494.20;;;10.93;63.34
37904;BME280;23738;50.422;18.758;2023-04-24T03:21:53;97499.23;;;10.92;63.20
37904;BME280;23738;50.422;18.758;2023-04-24T03:24:20;97493.80;;;10.89;63.37
37904;BME280;23738;50.422;18.758;2023-04-24T03:27:04;97490.66;;;10.85;63.33
37904;BME280;23738;50.422;18.758;2023-04-24T03:29:31;97489.98;;;10.85;63.29
37904;BME280;23738;50.422;18.758;2023-04-24T03:32:19;97490.05;;;10.84;63.38
37904;BME280;23738;50.422;18.758;2023-04-24T03:35:46;97491.06;;;10.87;63.35
37904;BME280;23738;50.422;18.758;2023-04-24T03:38:54;97489.54;;;10.89;63.63
37904;BME280;23738;50.422;18.758;2023-04-24T03:41:56;97486.72;;;10.90;63.50
37904;BME280;23738;50.422;18.758;2023-04-24T03:45:20;97482.33;;;10.90;63.41
37904;BME280;23738;50.422;18.758;2023-04-24T03:48:07;97484.86;;;10.92;63.39
37904;BME280;23738;50.422;18.758;2023-04-24T03:51:29;97483.65;;;10.92;63.32
37904;BME280;23738;50.422;18.758;2023-04-24T03:54:18;97488.17;;;10.93;63.32
37904;BME280;23738;50.422;18.758;2023-04-24T03:57:45;97484.38;;;10.94;63.29
37904;BME280;23738;50.422;18.758;2023-04-24T04:00:56;97479.61;;;10.94;63.18
37904;BME280;23738;50.422;18.758;2023-04-24T04:04:23;97482.98;;;10.93;63.36
37904;BME280;23738;50.422;18.758;2023-04-24T04:07:50;97482.30;;;10.93;63.12
37904;BME280;23738;50.422;18.758;2023-04-24T04:11:17;97481.70;;;10.97;63.23
37904;BME280;23738;50.422;18.758;2023-04-24T04:14:44;97483.20;;;11.06;63.21
37904;BME280;23738;50.422;18.758;2023-04-24T04:18:12;97479.98;;;11.15;63.16
37904;BME280;23738;50.422;18.758;2023-04-24T04:21:34;97479.80;;;11.22;63.11
37904;BME280;23738;50.422;18.758;2023-04-24T04:25:01;97483.84;;;11.33;63.12
37904;BME280;23738;50.422;18.758;2023-04-24T04:28:29;97486.65;;;11.42;62.75
37904;BME280;23738;50.422;18.758;2023-04-24T04:31:21;97489.41;;;11.52;62.69
37904;BME280;23738;50.422;18.758;2023-04-24T04:33:50;97488.98;;;11.62;62.67
37904;BME280;23738;50.422;18.758;2023-04-24T04:36:17;97485.50;;;11.71;62.53
37904;BME280;23738;50.422;18.758;2023-04-24T04:38:45;97479.50;;;11.81;62.53
37904;BME280;23738;50.422;18.758;2023-04-24T04:42:12;97481.77;;;11.94;62.44
37904;BME280;23738;50.422;18.758;2023-04-24T04:45:39;97483.66;;;12.11;62.32
37904;BME280;23738;50.422;18.758;2023-04-24T04:48:47;97479.49;;;12.23;62.04
37904;BME280;23738;50.422;18.758;2023-04-24T04:51:48;97482.98;;;12.38;61.90
37904;BME280;23738;50.422;18.758;2023-04-24T04:54:55;97480.91;;;12.47;61.77
37904;BME280;23738;50.422;18.758;2023-04-24T04:57:59;97475.55;;;12.52;61.61
37904;BME280;23738;50.422;18.758;2023-04-24T05:00:27;97481.58;;;12.54;61.53
37904;BME280;23738;50.422;18.758;2023-04-24T05:02:55;97481.05;;;12.57;61.24
37904;BME280;23738;50.422;18.758;2023-04-24T05:05:23;97482.12;;;12.59;61.08
37904;BME280;23738;50.422;18.758;2023-04-24T05:07:50;97481.61;;;12.61;61.17
37904;BME280;23738;50.422;18.758;2023-04-24T05:10:17;97480.66;;;12.64;61.06
37904;BME280;23738;50.422;18.758;2023-04-24T05:12:44;97477.61;;;12.66;60.96
37904;BME280;23738;50.422;18.758;2023-04-24T05:15:12;97482.36;;;12.71;61.02
37904;BME280;23738;50.422;18.758;2023-04-24T05:17:39;97482.73;;;12.74;60.76
37904;BME280;23738;50.422;18.758;2023-04-24T05:20:09;97480.40;;;12.77;60.62
37904;BME280;23738;50.422;18.758;2023-04-24T05:22:36;97485.36;;;12.85;60.48
37904;BME280;23738;50.422;18.758;2023-04-24T05:25:05;97479.32;;;12.91;60.44
37904;BME280;23738;50.422;18.758;2023-04-24T05:27:32;97477.22;;;12.95;60.29
37904;BME280;23738;50.422;18.758;2023-04-24T05:30:19;97478.74;;;13.01;60.23
37904;BME280;23738;50.422;18.758;2023-04-24T05:33:24;97477.64;;;13.08;60.06
37904;BME280;23738;50.422;18.758;2023-04-24T05:36:15;97479.01;;;13.15;60.01
37904;BME280;23738;50.422;18.758;2023-04-24T05:39:24;97477.21;;;13.26;59.99
37904;BME280;23738;50.422;18.758;2023-04-24T05:42:23;97477.81;;;13.37;59.95
37904;BME280;23738;50.422;18.758;2023-04-24T05:45:09;97477.49;;;13.55;59.55
37904;BME280;23738;50.422;18.758;2023-04-24T05:48:03;97472.03;;;13.74;59.50
37904;BME280;23738;50.422;18.758;2023-04-24T05:51:30;97474.23;;;13.96;59.29
37904;BME280;23738;50.422;18.758;2023-04-24T05:54:25;97472.98;;;14.12;59.06
37904;BME280;23738;50.422;18.758;2023-04-24T05:57:33;97469.59;;;14.33;58.92
37904;BME280;23738;50.422;18.758;2023-04-24T06:00:16;97466.59;;;14.49;58.57
37904;BME280;23738;50.422;18.758;2023-04-24T06:02:46;97463.64;;;14.61;58.39
37904;BME280;23738;50.422;18.758;2023-04-24T06:05:13;97461.22;;;14.75;58.11
37904;BME280;23738;50.422;18.758;2023-04-24T06:07:41;97463.58;;;14.88;58.04
37904;BME280;23738;50.422;18.758;2023-04-24T06:10:10;97462.70;;;14.99;57.89
37904;BME280;23738;50.422;18.758;2023-04-24T06:12:37;97459.64;;;15.06;57.40
37904;BME280;23738;50.422;18.758;2023-04-24T06:15:07;97454.05;;;15.19;57.18
37904;BME280;23738;50.422;18.758;2023-04-24T06:17:34;97455.99;;;15.31;56.76
37904;BME280;23738;50.422;18.758;2023-04-24T06:20:02;97455.08;;;15.43;56.39
37904;BME280;23738;50.422;18.758;2023-04-24T06:22:51;97452.98;;;15.55;56.03
37904;BME280;23738;50.422;18.758;2023-04-24T06:26:18;97457.75;;;15.76;56.20
37904;BME280;23738;50.422;18.758;2023-04-24T06:29:57;97454.41;;;16.04;55.53
37904;BME280;23738;50.422;18.758;2023-04-24T06:33:20;97454.27;;;16.20;55.17
37904;BME280;23738;50.422;18.758;2023-04-24T06:36:47;97451.91;;;16.35;55.06
37904;BME280;23738;50.422;18.758;2023-04-24T06:40:14;97451.93;;;16.73;54.64
37904;BME280;23738;50.422;18.758;2023-04-24T06:43:47;97447.95;;;16.99;54.47
37904;BME280;23738;50.422;18.758;2023-04-24T06:47:14;97443.67;;;17.29;53.81
37904;BME280;23738;50.422;18.758;2023-04-24T06:50:42;97442.52;;;17.84;53.03
37904;BME280;23738;50.422;18.758;2023-04-24T06:54:07;97442.11;;;18.32;52.24
37904;BME280;23738;50.422;18.758;2023-04-24T06:56:35;97443.06;;;18.44;51.90
37904;BME280;23738;50.422;18.758;2023-04-24T06:59:02;97441.39;;;18.51;50.98
37904;BME280;23738;50.422;18.758;2023-04-24T07:01:29;97439.16;;;18.59;50.76
37904;BME280;23738;50.422;18.758;2023-04-24T07:03:57;97438.55;;;18.63;49.59
37904;BME280;23738;50.422;18.758;2023-04-24T07:06:24;97437.63;;;18.66;50.03
37904;BME280;23738;50.422;18.758;2023-04-24T07:08:52;97435.28;;;18.65;48.44
37904;BME280;23738;50.422;18.758;2023-04-24T07:11:19;97438.98;;;18.65;49.14
37904;BME280;23738;50.422;18.758;2023-04-24T07:14:06;97440.90;;;18.72;49.09
37904;BME280;23738;50.422;18.758;2023-04-24T07:17:13;97434.99;;;18.68;48.39
37904;BME280;23738;50.422;18.758;2023-04-24T07:20:43;97432.98;;;18.63;47.89
37904;BME280;23738;50.422;18.758;2023-04-24T07:23:52;97433.52;;;18.66;47.64
37904;BME280;23738;50.422;18.758;2023-04-24T07:26:43;97427.16;;;19.00;47.01
37904;BME280;23738;50.422;18.758;2023-04-24T07:29:13;97421.96;;;19.20;47.27
37904;BME280;23738;50.422;18.758;2023-04-24T07:32:00;97426.08;;;19.32;46.39
37904;BME280;23738;50.422;18.758;2023-04-24T07:35:28;97421.59;;;19.55;47.87
37904;BME280;23738;50.422;18.758;2023-04-24T07:38:55;97424.48;;;19.91;46.97
37904;BME280;23738;50.422;18.758;2023-04-24T07:42:20;97421.73;;;20.17;46.82
37904;BME280;23738;50.422;18.758;2023-04-24T07:45:49;97427.28;;;20.35;46.17
37904;BME280;23738;50.422;18.758;2023-04-24T07:48:25;97422.52;;;20.42;45.89
37904;BME280;23738;50.422;18.758;2023-04-24T07:50:53;97423.73;;;20.48;45.41
37904;BME280;23738;50.422;18.758;2023-04-24T07:53:20;97423.10;;;20.63;45.27
37904;BME280;23738;50.422;18.758;2023-04-24T07:55:47;97428.34;;;20.84;44.81
37904;BME280;23738;50.422;18.758;2023-04-24T07:58:15;97421.27;;;21.02;44.28
37904;BME280;23738;50.422;18.758;2023-04-24T08:00:42;97420.95;;;21.15;44.33
37904;BME280;23738;50.422;18.758;2023-04-24T08:03:09;97416.89;;;21.27;43.88
37904;BME280;23738;50.422;18.758;2023-04-24T08:05:37;97416.20;;;21.42;44.48
37904;BME280;23738;50.422;18.758;2023-04-24T08:08:04;97411.30;;;21.54;43.90
37904;BME280;23738;50.422;18.758;2023-04-24T08:10:32;97412.77;;;21.58;43.28
37904;BME280;23738;50.422;18.758;2023-04-24T08:12:59;97413.20;;;21.62;43.22
37904;BME280;23738;50.422;18.758;2023-04-24T08:15:28;97413.41;;;21.71;43.22
37904;BME280;23738;50.422;18.758;2023-04-24T08:17:55;97409.25;;;21.79;42.85
37904;BME280;23738;50.422;18.758;2023-04-24T08:20:22;97413.94;;;21.83;42.40
37904;BME280;23738;50.422;18.758;2023-04-24T08:22:50;97413.17;;;21.88;41.47
37904;BME280;23738;50.422;18.758;2023-04-24T08:25:17;97409.08;;;21.95;41.90
37904;BME280;23738;50.422;18.758;2023-04-24T08:27:45;97407.23;;;22.08;41.79
37904;BME280;23738;50.422;18.758;2023-04-24T08:30:13;97405.30;;;22.20;40.07
37904;BME280;23738;50.422;18.758;2023-04-24T08:32:41;97403.55;;;22.32;41.42
37904;BME280;23738;50.422;18.758;2023-04-24T08:35:09;97404.58;;;22.44;41.10
37904;BME280;23738;50.422;18.758;2023-04-24T08:37:36;97401.36;;;22.56;40.33
37904;BME280;23738;50.422;18.758;2023-04-24T08:40:10;97406.98;;;22.63;40.03
37904;BME280;23738;50.422;18.758;2023-04-24T08:42:40;97406.80;;;22.71;40.22
37904;BME280;23738;50.422;18.758;2023-04-24T08:45:10;97405.12;;;22.82;40.01
37904;BME280;23738;50.422;18.758;2023-04-24T08:47:39;97398.78;;;22.95;39.72
37904;BME280;23738;50.422;18.758;2023-04-24T08:50:08;97398.61;;;23.09;39.25
37904;BME280;23738;50.422;18.758;2023-04-24T08:52:36;97395.48;;;23.26;39.20
37904;BME280;23738;50.422;18.758;2023-04-24T08:55:05;97390.65;;;23.49;40.01
37904;BME280;23738;50.422;18.758;2023-04-24T08:57:33;97385.55;;;23.70;39.26
37904;BME280;23738;50.422;18.758;2023-04-24T09:00:01;97388.99;;;23.86;38.84
37904;BME280;23738;50.422;18.758;2023-04-24T09:02:31;97388.63;;;23.99;38.98
37904;BME280;23738;50.422;18.758;2023-04-24T09:05:02;97384.16;;;24.06;36.96
37904;BME280;23738;50.422;18.758;2023-04-24T09:07:31;97387.25;;;23.94;38.21
37904;BME280;23738;50.422;18.758;2023-04-24T09:10:02;97385.05;;;24.05;38.74
37904;BME280;23738;50.422;18.758;2023-04-24T09:12:30;97382.26;;;24.18;39.51
37904;BME280;23738;50.422;18.758;2023-04-24T09:14:57;97378.33;;;24.26;38.46
37904;BME280;23738;50.422;18.758;2023-04-24T09:17:25;97380.27;;;24.27;37.93
37904;BME280;23738;50.422;18.758;2023-04-24T09:19:55;97381.42;;;24.30;38.47
37904;BME280;23738;50.422;18.758;2023-04-24T09:22:23;97384.41;;;24.41;38.57
37904;BME280;23738;50.422;18.758;2023-04-24T09:25:00;97378.23;;;24.51;38.11
37904;BME280;23738;50.422;18.758;2023-04-24T09:27:29;97381.27;;;24.63;37.56
37904;BME280;23738;50.422;18.758;2023-04-24T09:29:57;97378.16;;;24.75;37.75
37904;BME280;23738;50.422;18.758;2023-04-24T09:32:25;97372.55;;;24.94;37.55
37904;BME280;23738;50.422;18.758;2023-04-24T09:35:07;97373.08;;;25.02;37.79
37904;BME280;23738;50.422;18.758;2023-04-24T09:37:37;97369.52;;;25.13;35.86
37904;BME280;23738;50.422;18.758;2023-04-24T09:40:15;97370.48;;;25.05;37.19
37904;BME280;23738;50.422;18.758;2023-04-24T09:42:51;97371.64;;;25.03;36.72
37904;BME280;23738;50.422;18.758;2023-04-24T09:45:19;97369.58;;;24.93;35.40
37904;BME280;23738;50.422;18.758;2023-04-24T09:47:51;97369.42;;;24.74;36.34
37904;BME280;23738;50.422;18.758;2023-04-24T09:50:20;97369.30;;;24.68;36.81
37904;BME280;23738;50.422;18.758;2023-04-24T09:52:57;97365.65;;;24.56;36.04
37904;BME280;23738;50.422;18.758;2023-04-24T09:55:25;97364.53;;;24.39;35.95
37904;BME280;23738;50.422;18.758;2023-04-24T09:57:55;97364.05;;;24.25;35.58
37904;BME280;23738;50.422;18.758;2023-04-24T10:00:24;97363.50;;;24.17;35.51
37904;BME280;23738;50.422;18.758;2023-04-24T10:02:56;97360.48;;;24.14;35.22
37904;BME280;23738;50.422;18.758;2023-04-24T10:05:30;97359.28;;;24.06;35.72
37904;BME280;23738;50.422;18.758;2023-04-24T10:08:01;97357.21;;;24.01;34.95
37904;BME280;23738;50.422;18.758;2023-04-24T10:10:29;97353.48;;;23.92;35.53
37904;BME280;23738;50.422;18.758;2023-04-24T10:12:57;97355.76;;;23.85;35.47
37904;BME280;23738;50.422;18.758;2023-04-24T10:15:24;97351.34;;;23.75;35.46
37904;BME280;23738;50.422;18.758;2023-04-24T10:17:53;97353.54;;;23.64;35.71
37904;BME280;23738;50.422;18.758;2023-04-24T10:20:22;97350.65;;;23.57;35.33
37904;BME280;23738;50.422;18.758;2023-04-24T10:22:51;97343.96;;;23.49;35.62
37904;BME280;23738;50.422;18.758;2023-04-24T10:25:20;97343.48;;;23.45;35.83
37904;BME280;23738;50.422;18.758;2023-04-24T10:27:49;97341.27;;;23.38;36.14
37904;BME280;23738;50.422;18.758;2023-04-24T10:30:18;97340.55;;;23.31;36.10
37904;BME280;23738;50.422;18.758;2023-04-24T10:32:45;97345.65;;;23.24;35.93
37904;BME280;23738;50.422;18.758;2023-04-24T10:35:13;97340.55;;;23.19;36.21
37904;BME280;23738;50.422;18.758;2023-04-24T10:37:44;97340.95;;;23.16;35.63
37904;BME280;23738;50.422;18.758;2023-04-24T10:40:17;97337.36;;;23.15;35.73
37904;BME280;23738;50.422;18.758;2023-04-24T10:42:47;97330.98;;;23.26;35.73
37904;BME280;23738;50.422;18.758;2023-04-24T10:45:19;97329.66;;;23.41;35.53
37904;BME280;23738;50.422;18.758;2023-04-24T10:47:57;97323.53;;;23.49;35.55
37904;BME280;23738;50.422;18.758;2023-04-24T10:50:27;97324.89;;;23.49;35.49
37904;BME280;23738;50.422;18.758;2023-04-24T10:53:06;97327.28;;;23.40;35.30
37904;BME280;23738;50.422;18.758;2023-04-24T10:55:51;97318.37;;;23.20;35.63
37904;BME280;23738;50.422;18.758;2023-04-24T10:58:22;97328.92;;;22.85;36.08
37904;BME280;23738;50.422;18.758;2023-04-24T11:00:57;97330.27;;;22.55;36.33
37904;BME280;23738;50.422;18.758;2023-04-24T11:03:27;97328.73;;;22.36;36.61
37904;BME280;23738;50.422;18.758;2023-04-24T11:05:59;97337.19;;;22.23;36.72
37904;BME280;23738;50.422;18.758;2023-04-24T11:08:47;97339.29;;;22.06;36.90
37904;BME280;23738;50.422;18.758;2023-04-24T11:11:16;97337.83;;;21.85;36.93
37904;BME280;23738;50.422;18.758;2023-04-24T11:14:06;97333.29;;;21.67;37.19
37904;BME280;23738;50.422;18.758;2023-04-24T11:16:37;97342.10;;;21.59;37.68
37904;BME280;23738;50.422;18.758;2023-04-24T11:19:08;97348.04;;;21.44;37.51
37904;BME280;23738;50.422;18.758;2023-04-24T11:21:44;97353.92;;;21.28;38.01
37904;BME280;23738;50.422;18.758;2023-04-24T11:24:30;97356.39;;;21.11;38.12
37904;BME280;23738;50.422;18.758;2023-04-24T11:27:00;97356.45;;;20.98;38.25
37904;BME280;23738;50.422;18.758;2023-04-24T11:29:47;97357.19;;;20.87;38.63
37904;BME280;23738;50.422;18.758;2023-04-24T11:32:25;97358.56;;;20.82;38.78
37904;BME280;23738;50.422;18.758;2023-04-24T11:34:54;97364.17;;;20.80;38.94
37904;BME280;23738;50.422;18.758;2023-04-24T11:37:22;97367.56;;;20.76;39.00
37904;BME280;23738;50.422;18.758;2023-04-24T11:39:56;97371.90;;;20.74;39.16
37904;BME280;23738;50.422;18.758;2023-04-24T11:42:23;97370.80;;;20.75;39.47
37904;BME280;23738;50.422;18.758;2023-04-24T11:44:54;97366.80;;;20.73;39.25
37904;BME280;23738;50.422;18.758;2023-04-24T11:47:29;97369.37;;;20.70;39.01
37904;BME280;23738;50.422;18.758;2023-04-24T11:49:57;97369.17;;;20.66;39.32
37904;BME280;23738;50.422;18.758;2023-04-24T11:52:25;97372.08;;;20.61;39.34
37904;BME280;23738;50.422;18.758;2023-04-24T11:54:52;97373.83;;;20.63;39.55
37904;BME280;23738;50.422;18.758;2023-04-24T11:57:20;97368.22;;;20.65;39.69
37904;BME280;23738;50.422;18.758;2023-04-24T11:59:49;97360.77;;;20.67;39.75
37904;BME280;23738;50.422;18.758;2023-04-24T12:02:23;97366.77;;;20.72;39.85
37904;BME280;23738;50.422;18.758;2023-04-24T12:04:51;97367.85;;;20.68;39.67
37904;BME280;23738;50.422;18.758;2023-04-24T12:07:19;97367.55;;;20.55;39.57
37904;BME280;23738;50.422;18.758;2023-04-24T12:09:48;97367.08;;;20.47;39.89
37904;BME280;23738;50.422;18.758;2023-04-24T12:12:17;97363.88;;;20.40;40.30
37904;BME280;23738;50.422;18.758;2023-04-24T12:14:55;97366.11;;;20.37;40.28
37904;BME280;23738;50.422;18.758;2023-04-24T12:17:26;97365.69;;;20.26;40.41
37904;BME280;23738;50.422;18.758;2023-04-24T12:19:58;97365.64;;;20.18;40.43
37904;BME280;23738;50.422;18.758;2023-04-24T12:22:27;97359.94;;;20.08;40.42
37904;BME280;23738;50.422;18.758;2023-04-24T12:24:59;97362.61;;;20.01;40.53
37904;BME280;23738;50.422;18.758;2023-04-24T12:27:30;97356.64;;;19.91;40.65
37904;BME280;23738;50.422;18.758;2023-04-24T12:29:58;97353.98;;;19.83;40.85
37904;BME280;23738;50.422;18.758;2023-04-24T12:32:26;97354.04;;;19.79;40.93
37904;BME280;23738;50.422;18.758;2023-04-24T12:34:54;97360.38;;;19.69;41.01
37904;BME280;23738;50.422;18.758;2023-04-24T12:37:23;97359.36;;;19.54;40.75
37904;BME280;23738;50.422;18.758;2023-04-24T12:40:03;97360.86;;;19.48;41.00
37904;BME280;23738;50.422;18.758;2023-04-24T12:42:32;97358.14;;;19.37;40.80
37904;BME280;23738;50.422;18.758;2023-04-24T12:45:02;97356.30;;;19.28;40.91
37904;BME280;23738;50.422;18.758;2023-04-24T12:47:31;97352.31;;;19.25;40.88
37904;BME280;23738;50.422;18.758;2023-04-24T12:49:59;97353.41;;;19.22;41.16
37904;BME280;23738;50.422;18.758;2023-04-24T12:52:28;97350.69;;;19.15;41.19
37904;BME280;23738;50.422;18.758;2023-04-24T12:54:57;97345.98;;;19.10;41.36
37904;BME280;23738;50.422;18.758;2023-04-24T12:57:26;97350.88;;;19.06;41.38
37904;BME280;23738;50.422;18.758;2023-04-24T12:59:54;97347.38;;;18.98;41.38
37904;BME280;23738;50.422;18.758;2023-04-24T13:02:23;97345.56;;;18.92;41.49
37904;BME280;23738;50.422;18.758;2023-04-24T13:04:51;97339.78;;;18.86;41.37
37904;BME280;23738;50.422;18.758;2023-04-24T13:07:18;97334.91;;;18.80;41.81
37904;BME280;23738;50.422;18.758;2023-04-24T13:09:47;97339.39;;;18.76;41.80
37904;BME280;23738;50.422;18.758;2023-04-24T13:12:15;97334.06;;;18.74;41.99
37904;BME280;23738;50.422;18.758;2023-04-24T13:14:42;97335.04;;;18.71;41.76
37904;BME280;23738;50.422;18.758;2023-04-24T13:17:09;97333.55;;;18.69;41.85
37904;BME280;23738;50.422;18.758;2023-04-24T13:19:39;97329.63;;;18.70;42.06
37904;BME280;23738;50.422;18.758;2023-04-24T13:22:10;97328.10;;;18.70;42.22
37904;BME280;23738;50.422;18.758;2023-04-24T13:24:39;97326.52;;;18.72;42.34
37904;BME280;23738;50.422;18.758;2023-04-24T13:27:07;97321.56;;;18.71;42.54
37904;BME280;23738;50.422;18.758;2023-04-24T13:29:35;97318.75;;;18.67;42.52
37904;BME280;23738;50.422;18.758;2023-04-24T13:32:03;97314.46;;;18.68;42.71
37904;BME280;23738;50.422;18.758;2023-04-24T13:34:30;97311.09;;;18.70;43.22
37904;BME280;23738;50.422;18.758;2023-04-24T13:36:58;97311.06;;;18.73;43.13
37904;BME280;23738;50.422;18.758;2023-04-24T13:39:26;97313.17;;;18.76;43.24
37904;BME280;23738;50.422;18.758;2023-04-24T13:41:53;97309.87;;;18.81;43.15
37904;BME280;23738;50.422;18.758;2023-04-24T13:44:21;97306.09;;;18.78;43.35
37904;BME280;23738;50.422;18.758;2023-04-24T13:46:50;97303.65;;;18.76;43.15
37904;BME280;23738;50.422;18.758;2023-04-24T13:49:19;97301.25;;;18.76;43.26
37904;BME280;23738;50.422;18.758;2023-04-24T13:51:47;97300.61;;;18.80;43.32
37904;BME280;23738;50.422;18.758;2023-04-24T13:54:15;97296.07;;;18.81;43.24
37904;BME280;23738;50.422;18.758;2023-04-24T13:59:24;97296.60;;;18.81;43.48
37904;BME280;23738;50.422;18.758;2023-04-24T14:01:52;97298.31;;;18.81;43.77
37904;BME280;23738;50.422;18.758;2023-04-24T14:04:19;97296.22;;;18.75;43.68
37904;BME280;23738;50.422;18.758;2023-04-24T14:06:47;97295.48;;;18.69;43.93
37904;BME280;23738;50.422;18.758;2023-04-24T14:09:14;97297.60;;;18.65;44.00